Aérodrome :
LOGIN :

S'inscrire | Disclaimer

   EN    FR    IT 

 










Légende :    VFR   VFR Marginal   IFR   IFR Intensif   IFR Très Intensif
Visi : 
Plafond : 
>= 8 km
>= 3000ft
5 à 8 km
1000 à 3000 ft
1500m à 5 km
500 à 1000 ft
800 à 1500m
200 à 500 ft
< 800m
< 200 ft
Symboles :   Orages  Brouillard  Fortes neiges  Fortes précipitations  Vent > 20 kt
SIGMETs :   Divers  Orages  Givrage  Turbulence  Onde Orograph.  Cendres Volcan.






- Altitude de l'aérodrome : 302 ft
- Code IATA : CGN


EDDK - Cologne Bonn

DERNIER METAR :
  • 281820Z 36008KT CAVOK 11/M00 Q1021 NOSIG

METARs EXPIRÉS :
  • 281750Z 36007KT CAVOK 12/M01 Q1021 NOSIG
  • 281720Z 01012KT 330V040 CAVOK 12/M00 Q1020 NOSIG
  • 281650Z 02010KT 350V050 CAVOK 13/M01 Q1020 NOSIG
  • 281620Z 01012KT CAVOK 14/M01 Q1020 NOSIG
  • 281550Z 36014KT 330V040 CAVOK 14/M01 Q1020 NOSIG

TAF TAF EDDK
Valide du 28 à 18h jusqu'au 30 à 00h UTC


281700Z 2818/2924 35013KT 9999 FEW040
BECMG 2818/2821 33008KT
PROB30
TEMPO 2903/2908 BKN014
BECMG 2908/2911 35015G25KT
PROB30
TEMPO 2911/2914 36020G30KT SHSNRA BKN015TCU
BECMG 2918/2920 01007KT



MET'MAP, la Météo Aéronautique d'un coup d'oeil ! - Copyright ORBIFLY Décembre 2007 - Disclaimer

ORBIFLY MET'MAP TEAM :

Programmation & Développement : Alexandra Zaïnal
Sur une idée originale de : Baudouin d'Aumeries
Assistance à la programmation : Marc-Olivier Méhu
Soutien technique & logistique : Manuel Goepfert

Contact : metmap@orbifly.com




SOURCES & CREDITS :

   NOAA